Time;durP1;ratioP1;P1;durP2;ratioP2;P2;SDS_P1;SDS_P2;PMS_P1;PMS_P2;Temp;Humidity;BMP_temperature;BMP_pressure;BME280_temperature;BME280_humidity;BME280_pressure;Samples;Min_cycle;Max_cycle;Signal;HPM_P1;HPM_P2
2022/06/29 00:01:17;;;;;;;10.50;5.65;;;16.20;99.90;;;;;;6341210;28;20051;-77
2022/06/29 00:04:19;;;;;;;6.72;5.18;;;16.10;99.90;;;;;;6341359;28;20626;-77
2022/06/29 00:07:22;;;;;;;7.93;5.55;;;16.10;99.90;;;;;;6340030;28;20043;-77
2022/06/29 00:10:25;;;;;;;8.00;5.53;;;16.00;99.90;;;;;;6329289;28;20535;-77
2022/06/29 00:13:27;;;;;;;7.53;5.55;;;15.90;99.90;;;;;;6328940;28;20079;-76
2022/06/29 00:16:29;;;;;;;9.63;5.25;;;15.80;99.90;;;;;;6323165;28;20058;-77
2022/06/29 00:19:31;;;;;;;7.85;5.95;;;15.80;99.90;;;;;;6336298;28;20052;-77
2022/06/29 00:22:35;;;;;;;10.43;6.18;;;15.70;99.90;;;;;;6338434;28;20052;-77
2022/06/29 00:25:40;;;;;;;7.47;6.00;;;15.70;99.90;;;;;;6323321;28;20048;-77
2022/06/29 00:28:42;;;;;;;9.70;5.93;;;15.70;99.90;;;;;;6321556;28;20077;-77
2022/06/29 00:31:44;;;;;;;10.60;6.50;;;15.70;99.90;;;;;;6336411;28;20036;-76
2022/06/29 00:34:46;;;;;;;8.45;5.38;;;15.70;99.90;;;;;;6321301;28;20052;-76
2022/06/29 00:37:49;;;;;;;7.20;6.05;;;15.70;99.90;;;;;;6335234;28;20496;-76
2022/06/29 00:40:51;;;;;;;8.70;5.93;;;15.70;99.90;;;;;;6336107;28;20048;-76
2022/06/29 00:43:53;;;;;;;9.15;6.30;;;15.70;99.90;;;;;;6330867;28;20063;-76
2022/06/29 00:46:58;;;;;;;9.65;5.82;;;15.60;99.90;;;;;;6328799;28;20234;-76
2022/06/29 00:50:00;;;;;;;7.35;6.63;;;15.70;99.90;;;;;;6346819;28;20491;-76
2022/06/29 00:53:05;;;;;;;8.60;6.18;;;15.60;99.90;;;;;;6333288;28;20503;-76
2022/06/29 00:56:09;;;;;;;11.70;6.75;;;15.60;99.90;;;;;;6327374;28;20047;-76
2022/06/29 00:59:13;;;;;;;7.68;6.88;;;15.60;99.90;;;;;;6335945;28;20051;-76
2022/06/29 01:02:17;;;;;;;8.23;6.90;;;15.50;99.90;;;;;;6330138;28;20123;-76
2022/06/29 01:05:19;;;;;;;12.80;7.30;;;15.40;99.90;;;;;;6333213;28;20055;-76
2022/06/29 01:08:22;;;;;;;10.65;6.88;;;15.40;99.90;;;;;;6344253;28;20047;-76
2022/06/29 01:11:24;;;;;;;10.65;7.38;;;15.40;99.90;;;;;;6325829;28;20048;-76
2022/06/29 01:14:26;;;;;;;9.98;7.40;;;15.30;99.90;;;;;;6338895;28;20046;-76
2022/06/29 01:17:28;;;;;;;9.50;7.13;;;15.40;99.90;;;;;;6333876;28;20476;-76
2022/06/29 01:20:30;;;;;;;8.73;7.53;;;15.30;99.90;;;;;;6339915;28;20052;-76
2022/06/29 01:23:33;;;;;;;12.05;8.15;;;15.30;99.90;;;;;;6331636;28;20052;-76
2022/06/29 01:26:35;;;;;;;11.90;7.65;;;15.20;99.90;;;;;;6346542;28;20051;-76
2022/06/29 01:29:41;;;;;;;8.37;7.57;;;15.20;99.90;;;;;;6324135;28;20052;-76
2022/06/29 01:32:43;;;;;;;11.38;8.27;;;15.10;99.90;;;;;;6326142;28;20485;-76
2022/06/29 01:35:45;;;;;;;9.32;7.97;;;15.10;99.90;;;;;;6333701;28;20066;-76
2022/06/29 01:38:48;;;;;;;11.73;8.13;;;15.10;99.90;;;;;;6326413;28;20051;-76
2022/06/29 01:41:50;;;;;;;10.50;8.23;;;15.20;99.90;;;;;;6337336;28;20527;-76
2022/06/29 01:44:52;;;;;;;11.20;8.10;;;15.10;99.90;;;;;;6334673;28;20056;-76
2022/06/29 01:47:54;;;;;;;12.93;8.40;;;15.10;99.90;;;;;;6333738;28;20511;-76
2022/06/29 01:50:56;;;;;;;10.93;8.43;;;15.10;99.90;;;;;;6344786;28;20424;-76
2022/06/29 01:54:00;;;;;;;12.13;8.60;;;15.10;99.90;;;;;;6334763;28;20059;-76
2022/06/29 01:57:01;;;;;;;11.40;8.60;;;15.00;99.90;;;;;;6337784;28;20394;-76
2022/06/29 02:00:04;;;;;;;9.48;8.45;;;15.00;99.90;;;;;;6334671;28;20050;-76
2022/06/29 02:03:06;;;;;;;11.00;8.27;;;15.10;99.90;;;;;;6337683;28;20056;-76
2022/06/29 02:06:09;;;;;;;11.57;8.93;;;15.00;99.90;;;;;;6336360;28;20055;-76
2022/06/29 02:09:12;;;;;;;13.68;8.85;;;15.10;99.90;;;;;;6326187;28;20055;-76
2022/06/29 02:12:14;;;;;;;10.57;9.25;;;15.00;99.90;;;;;;6339293;28;20428;-76
2022/06/29 02:15:16;;;;;;;10.85;9.05;;;15.00;99.90;;;;;;6332338;28;20039;-76
2022/06/29 02:18:18;;;;;;;10.02;9.02;;;15.00;99.90;;;;;;6339103;28;20044;-76
2022/06/29 02:21:20;;;;;;;10.75;9.68;;;15.00;99.90;;;;;;6332100;28;20055;-76
2022/06/29 02:24:23;;;;;;;11.88;9.48;;;15.00;99.90;;;;;;6341703;28;20059;-76
2022/06/29 02:27:25;;;;;;;10.77;9.32;;;15.00;99.90;;;;;;6343032;28;20385;-76
2022/06/29 02:37:03;;;;;;;10.73;9.73;;;14.90;99.90;;;;;;6325296;28;20048;-76
2022/06/29 02:40:08;;;;;;;11.57;10.07;;;14.90;99.90;;;;;;6366666;27;20093;-76
2022/06/29 02:43:10;;;;;;;11.07;9.95;;;14.90;99.90;;;;;;6340447;28;20389;-76
2022/06/29 02:46:12;;;;;;;12.00;10.07;;;14.90;99.90;;;;;;6328551;28;20386;-76
2022/06/29 02:49:13;;;;;;;11.52;10.25;;;14.90;99.90;;;;;;6325213;28;20386;-76
2022/06/29 02:52:15;;;;;;;11.45;10.27;;;14.80;99.90;;;;;;6324724;28;20036;-76
2022/06/29 02:55:19;;;;;;;11.90;10.60;;;14.80;99.90;;;;;;6328650;28;20059;-76
2022/06/29 02:58:21;;;;;;;13.88;10.98;;;14.70;99.90;;;;;;6339812;28;20507;-76
2022/06/29 03:01:22;;;;;;;13.30;11.35;;;14.70;99.90;;;;;;6346739;28;20043;-76
2022/06/29 03:04:24;;;;;;;12.68;11.30;;;14.70;99.90;;;;;;6329951;28;20055;-76
2022/06/29 03:07:27;;;;;;;14.55;11.20;;;14.70;99.90;;;;;;6324592;28;20420;-76
2022/06/29 03:10:30;;;;;;;12.07;10.60;;;14.70;99.90;;;;;;6334462;28;20083;-76
2022/06/29 03:13:32;;;;;;;11.75;10.45;;;14.60;99.90;;;;;;6338297;28;20047;-76
2022/06/29 03:16:34;;;;;;;12.48;10.73;;;14.60;99.90;;;;;;6343948;28;20062;-76
2022/06/29 03:19:36;;;;;;;12.50;11.15;;;14.70;99.90;;;;;;6335688;28;20043;-76
2022/06/29 03:22:38;;;;;;;13.65;10.80;;;14.70;99.90;;;;;;6335160;28;20408;-76
2022/06/29 03:25:42;;;;;;;12.32;10.90;;;14.60;99.90;;;;;;6346660;28;20416;-76
2022/06/29 03:28:43;;;;;;;;;;;14.70;99.90;;;;;;6343563;28;20071;-76
2022/06/29 03:31:45;;;;;;;13.18;11.75;;;14.70;99.90;;;;;;6325551;28;19920;-76
2022/06/29 03:34:47;;;;;;;13.30;11.93;;;14.70;99.90;;;;;;6341498;28;20047;-76
2022/06/29 03:37:50;;;;;;;12.48;11.27;;;14.70;99.90;;;;;;6340148;28;20048;-76
2022/06/29 03:40:53;;;;;;;12.37;11.17;;;14.70;99.90;;;;;;6345612;28;20040;-76
2022/06/29 03:43:55;;;;;;;12.55;10.98;;;14.70;99.90;;;;;;6333703;28;20477;-76
2022/06/29 03:46:57;;;;;;;13.15;11.55;;;14.70;99.90;;;;;;6324451;28;20059;-76
2022/06/29 03:50:00;;;;;;;11.85;10.75;;;14.80;99.90;;;;;;6342200;28;20048;-76
2022/06/29 03:53:02;;;;;;;11.77;10.13;;;14.80;99.90;;;;;;6341464;28;20055;-76
2022/06/29 03:56:05;;;;;;;13.55;11.23;;;14.80;99.90;;;;;;6338958;28;20507;-76
2022/06/29 03:59:07;;;;;;;;;;;14.90;99.90;;;;;;6325779;28;20040;-76
2022/06/29 04:02:09;;;;;;;12.57;10.40;;;14.90;99.90;;;;;;6328975;28;19920;-76
2022/06/29 04:05:11;;;;;;;13.23;10.52;;;14.90;99.90;;;;;;6341405;28;20044;-76
2022/06/29 04:08:13;;;;;;;11.60;10.40;;;15.00;99.90;;;;;;6332042;28;20043;-76
2022/06/29 04:14:35;;;;;;;11.77;10.68;;;15.00;99.90;;;;;;6328019;28;20076;-76
2022/06/29 04:17:37;;;;;;;11.50;10.35;;;15.00;99.90;;;;;;6344563;28;20400;-76
2022/06/29 04:23:59;;;;;;;11.80;10.38;;;14.90;99.90;;;;;;6335033;28;20047;-76
2022/06/29 04:27:02;;;;;;;11.35;10.25;;;14.90;99.90;;;;;;6322176;28;20047;-76
2022/06/29 04:30:04;;;;;;;11.70;10.15;;;14.90;99.90;;;;;;6336758;28;20496;-77
2022/06/29 04:33:07;;;;;;;14.02;10.75;;;14.90;99.90;;;;;;6346192;28;20055;-76
2022/06/29 04:36:09;;;;;;;13.97;11.00;;;15.00;99.90;;;;;;6337112;28;20040;-77
2022/06/29 04:39:11;;;;;;;14.68;10.57;;;15.00;99.90;;;;;;6323069;28;20044;-77
2022/06/29 04:42:14;;;;;;;11.88;10.57;;;15.00;99.90;;;;;;6321946;28;20044;-77
2022/06/29 04:48:32;;;;;;;11.98;10.77;;;15.10;99.90;;;;;;6346613;28;20048;-77
2022/06/29 04:51:35;;;;;;;11.65;10.35;;;15.20;99.90;;;;;;6346211;28;20054;-77
2022/06/29 04:54:37;;;;;;;11.23;10.23;;;15.30;99.90;;;;;;6345041;28;20136;-77
2022/06/29 04:57:40;;;;;;;9.90;8.75;;;15.40;99.90;;;;;;6321840;28;20054;-77
2022/06/29 05:00:42;;;;;;;12.88;10.98;;;15.50;99.90;;;;;;6319867;28;20046;-77
2022/06/29 05:03:44;;;;;;;11.48;10.27;;;15.60;99.90;;;;;;6325832;28;20051;-77
2022/06/29 05:06:46;;;;;;;12.77;10.82;;;15.70;99.90;;;;;;6338274;28;20039;-77
2022/06/29 05:09:48;;;;;;;13.20;10.23;;;15.90;99.90;;;;;;6336120;28;20410;-77
2022/06/29 05:12:51;;;;;;;9.23;8.10;;;16.10;99.90;;;;;;6336926;28;20063;-77
2022/06/29 05:15:53;;;;;;;10.73;9.73;;;16.20;99.90;;;;;;6321445;28;20138;-77
2022/06/29 05:18:55;;;;;;;12.60;9.65;;;16.20;99.90;;;;;;6336153;28;20051;-77
2022/06/29 05:21:57;;;;;;;13.40;10.02;;;16.20;99.90;;;;;;6346789;28;20044;-77
2022/06/29 05:24:59;;;;;;;10.98;10.00;;;16.20;99.90;;;;;;6341079;28;20053;-77
2022/06/29 05:28:02;;;;;;;12.05;10.95;;;16.20;99.90;;;;;;6346820;28;20039;-77
2022/06/29 05:31:04;;;;;;;10.70;9.80;;;16.30;99.90;;;;;;6342801;28;20503;-77
2022/06/29 05:34:06;;;;;;;12.52;9.30;;;16.40;99.90;;;;;;6343142;28;20047;-77
2022/06/29 05:37:08;;;;;;;11.45;9.48;;;16.50;99.90;;;;;;6332499;28;20056;-77
2022/06/29 05:40:10;;;;;;;11.10;9.60;;;16.60;99.90;;;;;;6334768;28;20047;-77
2022/06/29 05:43:13;;;;;;;10.77;9.75;;;16.60;99.90;;;;;;6349430;28;20044;-77
2022/06/29 05:46:15;;;;;;;10.73;9.60;;;16.70;99.90;;;;;;6338175;27;20497;-77
2022/06/29 05:49:17;;;;;;;10.73;9.30;;;16.80;99.90;;;;;;6325227;28;20409;-77
2022/06/29 05:52:19;;;;;;;10.32;9.32;;;16.90;99.90;;;;;;6339919;28;20062;-77
2022/06/29 05:55:21;;;;;;;8.63;7.72;;;17.00;99.90;;;;;;6330957;28;20048;-80
2022/06/29 05:58:25;;;;;;;13.20;9.13;;;17.00;99.90;;;;;;6334958;28;20424;-78
2022/06/29 06:01:27;;;;;;;9.55;8.65;;;17.10;99.90;;;;;;6349057;28;20130;-75
2022/06/29 06:04:29;;;;;;;9.90;8.93;;;17.20;99.90;;;;;;6346331;28;20393;-76
2022/06/29 06:07:31;;;;;;;9.52;8.70;;;17.20;99.90;;;;;;6338650;28;20067;-76
2022/06/29 06:10:32;;;;;;;9.32;8.00;;;17.60;99.90;;;;;;6330294;28;20047;-75
2022/06/29 06:13:36;;;;;;;11.68;8.15;;;17.80;99.90;;;;;;6337821;28;20353;-74
2022/06/29 06:16:38;;;;;;;11.40;8.60;;;18.00;99.90;;;;;;6355984;27;20035;-74
2022/06/29 06:19:40;;;;;;;7.55;6.53;;;18.10;99.90;;;;;;6368484;27;20062;-74
2022/06/29 06:22:41;;;;;;;8.75;6.70;;;18.20;99.90;;;;;;6328610;28;20044;-76
2022/06/29 06:25:43;;;;;;;7.53;6.82;;;18.30;99.90;;;;;;6333171;28;20042;-77
2022/06/29 06:28:47;;;;;;;9.07;6.18;;;18.40;99.90;;;;;;6347107;28;20055;-76
2022/06/29 06:31:49;;;;;;;9.02;6.78;;;18.30;99.90;;;;;;6346788;28;20050;-76
2022/06/29 06:34:51;;;;;;;7.13;5.47;;;18.30;99.90;;;;;;6345663;28;20059;-77
2022/06/29 06:37:53;;;;;;;7.57;6.03;;;18.50;99.90;;;;;;6340911;28;20395;-76
2022/06/29 06:44:15;;;;;;;12.45;6.10;;;18.90;99.90;;;;;;6359404;27;20055;-77
2022/06/29 06:47:17;;;;;;;6.32;5.30;;;18.90;99.90;;;;;;6350074;27;20039;-77
2022/06/29 06:50:19;;;;;;;6.80;4.95;;;18.80;99.90;;;;;;6344982;28;20412;-77
2022/06/29 06:53:22;;;;;;;5.32;4.82;;;18.80;99.90;;;;;;6325566;28;20048;-76
2022/06/29 06:56:25;;;;;;;8.05;4.93;;;19.00;99.90;;;;;;6326066;28;20048;-77
2022/06/29 06:59:29;;;;;;;6.30;4.25;;;19.40;99.90;;;;;;6330167;28;20054;-77
2022/06/29 07:02:30;;;;;;;;;;;19.50;99.90;;;;;;6348819;28;20047;-77
2022/06/29 07:05:32;;;;;;;7.57;4.53;;;19.80;99.90;;;;;;6346243;28;19942;-77
2022/06/29 07:08:35;;;;;;;7.63;4.45;;;19.90;99.90;;;;;;6347077;28;20044;-77
2022/06/29 07:11:37;;;;;;;4.55;4.15;;;20.30;99.90;;;;;;6338336;27;20051;-78
2022/06/29 07:14:41;;;;;;;5.28;3.88;;;20.80;99.90;;;;;;6324051;28;20051;-77
2022/06/29 07:17:43;;;;;;;;;;;21.60;99.90;;;;;;6339247;28;20553;-76
2022/06/29 07:20:44;;;;;;;3.97;3.03;;;22.00;99.90;;;;;;6341828;27;19981;-76
2022/06/29 07:23:46;;;;;;;6.45;3.47;;;22.50;99.90;;;;;;6337206;28;20036;-76
2022/06/29 07:26:48;;;;;;;2.72;2.40;;;22.90;99.90;;;;;;6327547;28;20047;-76
2022/06/29 07:29:52;;;;;;;4.68;2.95;;;23.20;99.90;;;;;;6345043;28;20043;-76
2022/06/29 07:32:54;;;;;;;6.70;2.95;;;23.40;99.90;;;;;;6334979;28;20070;-76
2022/06/29 07:35:56;;;;;;;3.90;2.92;;;23.40;99.90;;;;;;6341767;27;20044;-76
2022/06/29 07:38:58;;;;;;;6.88;2.58;;;23.50;99.90;;;;;;6333934;28;20480;-77
2022/06/29 07:42:00;;;;;;;4.05;2.80;;;23.60;99.90;;;;;;6334156;28;20059;-77
2022/06/29 07:45:04;;;;;;;3.80;2.53;;;23.60;99.90;;;;;;6330215;28;20184;-76
2022/06/29 07:48:07;;;;;;;4.60;2.10;;;23.70;99.90;;;;;;6336655;28;20051;-76
2022/06/29 07:51:09;;;;;;;3.92;2.40;;;23.80;99.90;;;;;;6341184;28;20453;-76
2022/06/29 07:54:11;;;;;;;4.45;2.75;;;24.00;99.90;;;;;;6348864;28;20039;-76
2022/06/29 07:57:13;;;;;;;4.95;2.50;;;24.10;99.90;;;;;;6347148;28;20052;-76
2022/06/29 08:00:17;;;;;;;5.70;2.78;;;24.10;99.90;;;;;;6344690;28;20054;-76
2022/06/29 08:03:19;;;;;;;6.15;2.40;;;24.20;99.90;;;;;;6340461;28;20047;-76
2022/06/29 08:06:21;;;;;;;4.30;2.03;;;24.30;99.90;;;;;;6343007;28;20051;-77
2022/06/29 08:09:23;;;;;;;4.28;2.00;;;24.40;99.90;;;;;;6343246;28;20048;-76
2022/06/29 08:12:25;;;;;;;2.70;2.25;;;24.40;99.90;;;;;;6346820;28;20047;-76
2022/06/29 08:15:29;;;;;;;2.58;2.20;;;24.30;98.90;;;;;;6343327;28;20044;-76
2022/06/29 08:18:31;;;;;;;3.67;1.95;;;24.40;99.90;;;;;;6328459;28;20047;-76
2022/06/29 08:21:33;;;;;;;5.22;2.75;;;24.40;99.90;;;;;;6341601;28;20050;-76
2022/06/29 08:24:35;;;;;;;4.35;2.00;;;24.30;99.70;;;;;;6323411;28;20169;-76
2022/06/29 08:27:36;;;;;;;3.20;2.20;;;24.30;99.70;;;;;;6321232;28;20054;-76
2022/06/29 08:30:40;;;;;;;4.65;1.98;;;24.40;99.50;;;;;;6343487;28;20507;-77
2022/06/29 08:33:43;;;;;;;4.80;2.20;;;24.40;97.80;;;;;;6347946;28;20044;-77
2022/06/29 08:36:45;;;;;;;4.15;2.05;;;24.30;98.90;;;;;;6338058;28;20496;-76
2022/06/29 08:39:47;;;;;;;3.05;1.80;;;24.30;98.40;;;;;;6331796;28;20579;-77
2022/06/29 08:42:50;;;;;;;4.45;1.80;;;24.40;99.20;;;;;;6345503;28;20047;-77
2022/06/29 08:45:54;;;;;;;3.75;1.60;;;24.50;99.00;;;;;;6335395;28;20047;-77
2022/06/29 08:48:56;;;;;;;4.20;1.80;;;24.70;98.40;;;;;;6322053;28;20052;-76
2022/06/29 08:51:58;;;;;;;2.50;2.30;;;24.80;98.20;;;;;;6339785;28;20062;-77
2022/06/29 08:55:03;;;;;;;2.75;1.92;;;24.80;97.60;;;;;;6330361;28;20156;-76
2022/06/29 08:58:07;;;;;;;3.88;1.67;;;24.70;98.50;;;;;;6347229;28;20048;-77
2022/06/29 09:01:10;;;;;;;2.45;1.65;;;24.50;98.70;;;;;;6345731;28;20048;-77
2022/06/29 09:04:12;;;;;;;5.15;1.88;;;24.30;98.70;;;;;;6341847;28;20085;-77
2022/06/29 09:07:14;;;;;;;3.38;1.83;;;24.40;99.90;;;;;;6345858;28;20480;-77
2022/06/29 09:10:21;;;;;;;3.53;2.20;;;24.30;99.00;;;;;;6327908;28;20130;-77
2022/06/29 09:13:24;;;;;;;4.63;2.45;;;24.30;98.60;;;;;;6342437;28;20047;-77
2022/06/29 09:16:27;;;;;;;;;;;24.30;98.60;;;;;;6344935;28;20059;-76
2022/06/29 09:19:42;;;;;;;4.05;1.75;;;24.40;99.20;;;;;;6340795;28;19935;-76
2022/06/29 09:22:52;;;;;;;5.63;2.30;;;24.40;99.60;;;;;;6321672;28;20385;-77
2022/06/29 09:25:55;;;;;;;3.47;2.20;;;24.30;98.90;;;;;;6342394;28;20407;-77
2022/06/29 09:28:59;;;;;;;4.23;2.13;;;24.30;98.90;;;;;;6327440;28;20475;-76
2022/06/29 09:32:14;;;;;;;3.10;1.98;;;24.40;98.90;;;;;;6337004;28;20083;-77
2022/06/29 09:35:16;;;;;;;3.08;1.90;;;24.40;99.50;;;;;;6336338;28;20134;-77
2022/06/29 09:38:22;;;;;;;3.50;1.80;;;24.70;99.40;;;;;;6328507;28;20055;-77
2022/06/29 09:41:28;;;;;;;4.32;2.08;;;24.70;99.10;;;;;;6346487;28;20067;-77
2022/06/29 09:44:30;;;;;;;3.25;2.08;;;24.90;99.10;;;;;;6341258;28;20515;-77
2022/06/29 09:47:34;;;;;;;2.78;1.90;;;25.00;98.20;;;;;;6346219;28;20048;-77
2022/06/29 09:50:36;;;;;;;3.55;2.45;;;25.00;98.50;;;;;;6331410;28;20040;-77
2022/06/29 09:53:39;;;;;;;4.03;2.13;;;25.00;97.90;;;;;;6338979;28;20044;-77
2022/06/29 09:56:46;;;;;;;3.55;2.20;;;25.20;98.40;;;;;;6346311;28;20040;-77
2022/06/29 10:03:12;;;;;;;2.28;1.95;;;25.30;97.70;;;;;;6335317;28;20150;-77
2022/06/29 10:06:17;;;;;;;6.18;2.00;;;25.40;97.80;;;;;;6319682;28;20064;-77
2022/06/29 10:09:19;;;;;;;2.78;2.10;;;25.50;98.30;;;;;;6340330;28;20043;-77
2022/06/29 10:16:03;;;;;;;6.63;2.17;;;25.60;98.00;;;;;;6329905;28;20044;-78
2022/06/29 10:19:41;;;;;;;3.13;2.20;;;25.70;95.70;;;;;;6334078;28;20070;-78
2022/06/29 10:22:43;;;;;;;4.50;2.40;;;25.70;97.80;;;;;;6243662;28;20351;-78
2022/06/29 10:25:45;;;;;;;8.25;3.00;;;25.80;97.50;;;;;;6338767;28;20510;-79
2022/06/29 10:28:47;;;;;;;10.45;2.97;;;25.80;98.40;;;;;;6348256;28;20047;-78
2022/06/29 10:32:12;;;;;;;4.22;2.17;;;25.80;98.10;;;;;;6347796;28;20048;-78
2022/06/29 10:35:15;;;;;;;11.23;3.10;;;26.00;97.50;;;;;;6349933;27;20048;-78
2022/06/29 10:38:20;;;;;;;10.23;2.70;;;26.00;99.90;;;;;;6331444;28;20051;-76
2022/06/29 10:45:01;;;;;;;7.18;2.70;;;26.10;97.90;;;;;;6343840;27;20443;-76
2022/06/29 10:48:24;;;;;;;5.60;2.25;;;26.20;99.10;;;;;;6348789;28;20541;-75
2022/06/29 10:51:28;;;;;;;5.95;2.70;;;26.20;97.20;;;;;;6331446;28;20048;-75
2022/06/29 10:54:31;;;;;;;2.58;2.17;;;26.20;97.80;;;;;;6345926;27;20452;-78
2022/06/29 10:57:34;;;;;;;3.28;2.15;;;26.10;96.90;;;;;;6374855;27;20043;-78
2022/06/29 11:00:39;;;;;;;3.42;2.00;;;26.10;96.90;;;;;;6349289;27;20046;-79
2022/06/29 11:03:41;;;;;;;3.45;2.33;;;26.00;96.60;;;;;;6342257;28;20058;-80
2022/06/29 11:13:24;;;;;;;3.50;1.92;;;26.10;97.70;;;;;;6324882;28;20044;-78
2022/06/29 11:16:32;;;;;;;3.65;1.80;;;26.00;96.90;;;;;;6341030;28;20051;-76
2022/06/29 11:19:36;;;;;;;2.28;2.00;;;25.90;96.10;;;;;;6322804;28;20059;-77
2022/06/29 11:22:49;;;;;;;3.28;2.00;;;25.80;96.60;;;;;;6322758;28;20489;-77
2022/06/29 11:25:54;;;;;;;;;;;25.90;96.20;;;;;;6344567;28;20530;-80
2022/06/29 11:28:57;;;;;;;2.65;1.67;;;26.00;96.60;;;;;;6342807;28;19923;-79
2022/06/29 11:32:02;;;;;;;4.57;1.70;;;26.20;95.60;;;;;;6346692;28;20484;-78
2022/06/29 11:35:06;;;;;;;2.20;1.90;;;26.30;95.80;;;;;;6338508;28;20051;-78
2022/06/29 11:38:09;;;;;;;;;;;26.40;95.10;;;;;;6343662;27;20059;-77
2022/06/29 11:41:12;;;;;;;2.55;2.03;;;26.60;94.50;;;;;;6342568;27;20390;-78
2022/06/29 11:44:24;;;;;;;4.40;2.28;;;26.70;94.40;;;;;;6338887;28;20051;-78
2022/06/29 11:47:28;;;;;;;2.30;1.95;;;26.80;93.20;;;;;;6334121;27;20512;-78
2022/06/29 11:50:30;;;;;;;2.78;2.05;;;26.70;95.30;;;;;;6334260;27;20040;-78
2022/06/29 11:53:41;;;;;;;3.78;2.10;;;26.60;94.20;;;;;;6342286;28;20047;-78
2022/06/29 11:56:44;;;;;;;4.45;2.20;;;26.50;94.80;;;;;;6337076;28;20500;-78
2022/06/29 11:59:48;;;;;;;3.35;2.35;;;26.60;95.60;;;;;;6328970;28;20054;-78
2022/06/29 12:02:58;;;;;;;2.45;2.10;;;26.50;95.70;;;;;;6329698;28;20409;-77
2022/06/29 12:06:02;;;;;;;2.72;2.05;;;26.60;95.70;;;;;;6328163;28;20070;-77
2022/06/29 12:09:06;;;;;;;5.38;2.60;;;26.70;95.40;;;;;;6341874;28;20044;-78
2022/06/29 12:12:09;;;;;;;5.85;2.80;;;26.70;95.20;;;;;;6337286;27;20107;-78
2022/06/29 12:15:13;;;;;;;3.55;2.70;;;26.70;94.70;;;;;;6328793;28;20052;-78
2022/06/29 12:18:18;;;;;;;2.97;2.78;;;26.80;95.60;;;;;;6343614;28;20043;-78
2022/06/29 12:21:20;;;;;;;3.38;2.70;;;26.80;95.60;;;;;;6341265;28;20044;-78
2022/06/29 12:24:24;;;;;;;2.63;2.42;;;26.80;95.90;;;;;;6340241;28;20453;-78
2022/06/29 12:27:27;;;;;;;5.03;3.80;;;26.70;96.10;;;;;;6339140;28;20061;-78
2022/06/29 12:30:29;;;;;;;3.47;2.67;;;26.80;95.70;;;;;;6331309;28;20510;-78
2022/06/29 12:33:31;;;;;;;3.60;3.30;;;26.70;96.10;;;;;;6345739;27;20506;-78
2022/06/29 12:36:32;;;;;;;4.53;4.13;;;26.80;96.00;;;;;;6333741;28;20044;-78
2022/06/29 12:39:36;;;;;;;4.97;4.45;;;26.90;96.40;;;;;;6334764;27;20104;-78
2022/06/29 12:42:38;;;;;;;5.68;3.80;;;26.90;96.90;;;;;;6333877;28;20412;-78
2022/06/29 12:45:40;;;;;;;4.85;4.45;;;26.80;96.90;;;;;;6350714;27;20055;-78
2022/06/29 12:48:41;;;;;;;4.55;3.67;;;26.80;97.00;;;;;;6351720;27;20039;-78
2022/06/29 12:51:44;;;;;;;4.15;3.80;;;26.70;97.10;;;;;;6326729;28;20043;-78
2022/06/29 12:54:47;;;;;;;5.63;4.57;;;26.80;97.00;;;;;;6359420;27;20043;-78
2022/06/29 12:57:49;;;;;;;6.15;4.47;;;26.80;97.50;;;;;;6332369;28;20054;-78
2022/06/29 13:00:51;;;;;;;4.88;4.43;;;27.00;97.70;;;;;;6329467;28;20055;-78
2022/06/29 13:03:53;;;;;;;5.88;5.38;;;27.10;97.20;;;;;;6345676;28;20396;-78
2022/06/29 13:06:55;;;;;;;6.65;5.05;;;27.00;96.90;;;;;;6343961;28;20051;-78
2022/06/29 13:09:58;;;;;;;6.50;4.90;;;27.00;97.20;;;;;;6340283;28;20051;-78
2022/06/29 13:13:00;;;;;;;4.80;4.15;;;26.80;97.10;;;;;;6327312;28;20047;-78
2022/06/29 13:16:02;;;;;;;5.63;4.80;;;26.80;97.50;;;;;;6326417;28;20100;-77
2022/06/29 13:19:04;;;;;;;4.72;4.30;;;26.60;97.40;;;;;;6335775;28;20477;-77
2022/06/29 13:22:06;;;;;;;6.40;5.18;;;26.40;97.80;;;;;;6335898;28;20036;-77
2022/06/29 13:25:10;;;;;;;5.28;4.60;;;26.30;97.80;;;;;;6333921;28;20049;-77
2022/06/29 13:28:12;;;;;;;5.32;4.75;;;26.20;97.80;;;;;;6337229;28;20043;-78
2022/06/29 13:31:14;;;;;;;5.97;5.22;;;26.10;98.00;;;;;;6335451;28;20181;-77
2022/06/29 13:34:16;;;;;;;5.35;4.88;;;26.00;97.90;;;;;;6358422;28;20051;-77
2022/06/29 13:37:18;;;;;;;5.75;4.28;;;26.10;98.20;;;;;;6372033;27;20043;-77
2022/06/29 13:40:21;;;;;;;4.90;4.50;;;26.10;98.30;;;;;;6345197;27;20047;-77
2022/06/29 13:43:23;;;;;;;4.90;4.50;;;26.10;98.40;;;;;;6336836;28;20524;-77
2022/06/29 13:46:25;;;;;;;4.68;4.28;;;26.10;98.50;;;;;;6332353;28;20517;-77
2022/06/29 13:49:27;;;;;;;5.85;5.30;;;26.20;98.40;;;;;;6323513;28;20127;-77
2022/06/29 13:52:29;;;;;;;4.95;4.45;;;26.10;98.10;;;;;;6341003;28;20126;-77
2022/06/29 13:55:32;;;;;;;6.50;5.38;;;26.00;98.30;;;;;;6341727;28;20075;-77
2022/06/29 13:58:34;;;;;;;6.03;4.55;;;26.00;98.60;;;;;;6347276;28;20044;-77
2022/06/29 14:01:37;;;;;;;4.82;4.32;;;26.00;98.80;;;;;;6349202;28;20052;-77
2022/06/29 14:04:41;;;;;;;5.32;4.80;;;26.10;98.70;;;;;;6348686;28;20514;-77
2022/06/29 14:07:43;;;;;;;6.53;4.30;;;26.20;98.60;;;;;;6347056;28;20044;-77
2022/06/29 14:10:48;;;;;;;5.57;4.50;;;26.30;98.70;;;;;;6342642;28;20048;-77
2022/06/29 14:13:50;;;;;;;4.80;4.30;;;26.30;98.70;;;;;;6349248;28;20498;-77
2022/06/29 14:16:52;;;;;;;4.53;4.13;;;26.30;98.70;;;;;;6349417;28;20116;-77
2022/06/29 14:19:53;;;;;;;5.75;5.20;;;26.30;98.70;;;;;;6348742;28;20047;-77
2022/06/29 14:22:56;;;;;;;6.25;4.80;;;26.10;98.70;;;;;;6346201;28;20407;-77
2022/06/29 14:25:59;;;;;;;5.50;5.00;;;26.10;99.30;;;;;;6350439;28;20056;-76
2022/06/29 14:29:01;;;;;;;5.00;4.47;;;26.10;99.00;;;;;;6350653;28;20524;-77
2022/06/29 14:32:03;;;;;;;5.22;4.72;;;26.10;98.90;;;;;;6348566;28;20051;-77
2022/06/29 14:35:06;;;;;;;5.18;4.65;;;26.10;98.90;;;;;;6327953;28;20416;-77
2022/06/29 14:38:08;;;;;;;5.00;4.50;;;26.20;98.90;;;;;;6348442;28;20455;-77
2022/06/29 14:41:11;;;;;;;5.00;4.50;;;26.30;98.90;;;;;;6350139;28;20101;-77
2022/06/29 14:44:13;;;;;;;5.93;4.82;;;26.30;98.90;;;;;;6334466;28;20058;-76
2022/06/29 14:47:15;;;;;;;7.13;5.10;;;26.30;99.20;;;;;;6324450;28;20052;-77
2022/06/29 14:50:21;;;;;;;5.38;4.82;;;26.20;98.80;;;;;;6330083;28;20055;-76
2022/06/29 14:53:23;;;;;;;5.85;5.10;;;26.20;99.00;;;;;;6337100;28;20481;-76
2022/06/29 14:56:26;;;;;;;5.28;4.32;;;26.10;98.90;;;;;;6340587;28;20130;-77
2022/06/29 14:59:28;;;;;;;;;;;26.00;99.10;;;;;;6348588;28;20051;-77
2022/06/29 15:02:30;;;;;;;6.18;5.47;;;26.00;99.30;;;;;;6346158;28;19934;-77
2022/06/29 15:05:32;;;;;;;5.00;4.50;;;25.90;99.10;;;;;;6327872;28;20040;-77
2022/06/29 15:08:34;;;;;;;5.30;4.80;;;25.90;99.30;;;;;;6336919;28;20148;-77
2022/06/29 15:11:37;;;;;;;5.30;4.80;;;25.90;99.40;;;;;;6342351;28;20096;-77
2022/06/29 15:14:39;;;;;;;5.00;4.60;;;25.90;99.80;;;;;;6334728;28;20040;-77
2022/06/29 15:17:41;;;;;;;7.40;5.05;;;25.90;99.60;;;;;;6325403;27;20135;-76
2022/06/29 15:20:43;;;;;;;5.13;4.50;;;25.90;99.70;;;;;;6332891;28;20043;-78
2022/06/29 15:23:46;;;;;;;4.97;4.57;;;25.80;99.70;;;;;;6325703;28;20199;-75
2022/06/29 15:26:49;;;;;;;5.22;4.72;;;25.80;99.80;;;;;;6346609;28;20051;-76
2022/06/29 15:29:51;;;;;;;5.40;4.90;;;25.80;99.70;;;;;;6346892;27;20048;-75
2022/06/29 15:32:53;;;;;;;5.65;4.90;;;25.80;99.70;;;;;;6358076;27;20055;-78
2022/06/29 15:39:14;;;;;;;7.40;4.90;;;25.90;99.80;;;;;;6323900;28;20504;-76
2022/06/29 15:42:18;;;;;;;5.57;5.07;;;25.90;99.80;;;;;;6332649;28;20519;-77
2022/06/29 15:45:20;;;;;;;;;;;26.00;99.70;;;;;;6332707;28;20682;-77
2022/06/29 15:48:22;;;;;;;7.65;5.60;;;26.20;99.70;;;;;;6347083;28;19920;-79
2022/06/29 15:51:24;;;;;;;5.40;4.90;;;26.30;99.20;;;;;;6347439;28;20054;-77
2022/06/29 15:57:46;;;;;;;6.25;5.65;;;26.40;99.10;;;;;;6314019;28;20055;-75
2022/06/29 16:00:48;;;;;;;9.48;6.05;;;26.40;98.60;;;;;;6344656;28;20492;-76
2022/06/29 16:03:49;;;;;;;6.15;5.55;;;26.50;98.80;;;;;;6372436;27;20541;-78
2022/06/29 16:06:51;;;;;;;6.15;5.55;;;26.50;98.80;;;;;;6360510;27;20055;-76
2022/06/29 16:09:53;;;;;;;5.50;5.10;;;26.50;98.70;;;;;;6347204;28;20051;-76
2022/06/29 16:12:57;;;;;;;8.90;5.82;;;26.50;99.10;;;;;;6344819;28;20051;-78
2022/06/29 16:15:59;;;;;;;;;;;26.60;98.70;;;;;;6337680;28;20059;-77
2022/06/29 16:19:01;;;;;;;6.60;5.55;;;26.60;99.00;;;;;;6277624;27;19924;-76
2022/06/29 16:22:03;;;;;;;5.72;5.13;;;26.50;99.10;;;;;;6283736;28;20422;-76
2022/06/29 16:25:06;;;;;;;5.60;5.10;;;26.50;99.30;;;;;;6294190;28;20040;-75
2022/06/29 16:28:09;;;;;;;5.20;4.78;;;26.50;99.20;;;;;;6292873;28;20057;-79
2022/06/29 16:31:11;;;;;;;;;;;26.50;99.20;;;;;;6296837;28;20049;-77
2022/06/29 16:34:13;;;;;;;6.90;4.78;;;26.50;99.20;;;;;;6287936;28;19955;-77